sensor_id;sensor_type;location;lat;lon;timestamp;pressure;altitude;pressure_sealevel;temperature;humidity
6413;BME280;3239;48.714;9.472;2023-06-14T00:01:50;97642.31;;;13.98;100.00
6413;BME280;3239;48.714;9.472;2023-06-14T00:04:16;97641.75;;;14.00;100.00
6413;BME280;3239;48.714;9.472;2023-06-14T00:06:43;97647.47;;;13.94;100.00
6413;BME280;3239;48.714;9.472;2023-06-14T00:09:14;97643.25;;;13.93;100.00
6413;BME280;3239;48.714;9.472;2023-06-14T00:11:41;97647.88;;;13.91;100.00
6413;BME280;3239;48.714;9.472;2023-06-14T00:14:07;97656.16;;;13.83;100.00
6413;BME280;3239;48.714;9.472;2023-06-14T00:16:32;97650.69;;;13.76;100.00
6413;BME280;3239;48.714;9.472;2023-06-14T00:18:59;97645.41;;;13.70;100.00
6413;BME280;3239;48.714;9.472;2023-06-14T00:21:25;97647.41;;;13.70;100.00
6413;BME280;3239;48.714;9.472;2023-06-14T00:23:57;97636.94;;;13.68;100.00
6413;BME280;3239;48.714;9.472;2023-06-14T00:26:22;97641.41;;;13.56;100.00
6413;BME280;3239;48.714;9.472;2023-06-14T00:28:48;97638.47;;;13.62;100.00
6413;BME280;3239;48.714;9.472;2023-06-14T00:31:15;97646.00;;;13.54;100.00
6413;BME280;3239;48.714;9.472;2023-06-14T00:33:40;97653.56;;;13.46;100.00
6413;BME280;3239;48.714;9.472;2023-06-14T00:36:06;97654.13;;;13.44;100.00
6413;BME280;3239;48.714;9.472;2023-06-14T00:38:32;97655.22;;;13.41;100.00
6413;BME280;3239;48.714;9.472;2023-06-14T00:40:58;97655.63;;;13.30;100.00
6413;BME280;3239;48.714;9.472;2023-06-14T00:43:23;97652.50;;;13.26;100.00
6413;BME280;3239;48.714;9.472;2023-06-14T00:45:49;97657.09;;;13.24;100.00
6413;BME280;3239;48.714;9.472;2023-06-14T00:48:17;97655.84;;;13.25;100.00
6413;BME280;3239;48.714;9.472;2023-06-14T00:50:44;97662.44;;;13.14;100.00
6413;BME280;3239;48.714;9.472;2023-06-14T00:53:12;97653.44;;;13.14;100.00
6413;BME280;3239;48.714;9.472;2023-06-14T00:55:41;97659.88;;;13.16;100.00
6413;BME280;3239;48.714;9.472;2023-06-14T00:58:07;97660.06;;;13.11;100.00
6413;BME280;3239;48.714;9.472;2023-06-14T01:00:33;97657.69;;;13.15;100.00
6413;BME280;3239;48.714;9.472;2023-06-14T01:02:59;97651.47;;;13.07;100.00
6413;BME280;3239;48.714;9.472;2023-06-14T01:05:25;97656.06;;;13.04;100.00
6413;BME280;3239;48.714;9.472;2023-06-14T01:11:12;97645.97;;;12.99;100.00
6413;BME280;3239;48.714;9.472;2023-06-14T01:13:46;97650.75;;;12.99;100.00
6413;BME280;3239;48.714;9.472;2023-06-14T01:16:12;97647.25;;;12.98;100.00
6413;BME280;3239;48.714;9.472;2023-06-14T01:18:38;97645.41;;;12.93;100.00
6413;BME280;3239;48.714;9.472;2023-06-14T01:21:04;97658.06;;;12.89;100.00
6413;BME280;3239;48.714;9.472;2023-06-14T01:23:32;97654.41;;;12.86;100.00
6413;BME280;3239;48.714;9.472;2023-06-14T01:25:59;97654.94;;;12.85;100.00
6413;BME280;3239;48.714;9.472;2023-06-14T01:28:26;97655.69;;;12.78;100.00
6413;BME280;3239;48.714;9.472;2023-06-14T01:31:00;97654.59;;;12.73;100.00
6413;BME280;3239;48.714;9.472;2023-06-14T01:33:31;97664.66;;;12.63;100.00
6413;BME280;3239;48.714;9.472;2023-06-14T01:35:58;97656.25;;;12.61;100.00
6413;BME280;3239;48.714;9.472;2023-06-14T01:38:26;97656.41;;;12.56;100.00
6413;BME280;3239;48.714;9.472;2023-06-14T01:40:55;97659.53;;;12.60;100.00
6413;BME280;3239;48.714;9.472;2023-06-14T01:43:22;97660.81;;;12.51;100.00
6413;BME280;3239;48.714;9.472;2023-06-14T01:45:50;97669.97;;;12.54;100.00
6413;BME280;3239;48.714;9.472;2023-06-14T01:48:17;97663.94;;;12.48;100.00
6413;BME280;3239;48.714;9.472;2023-06-14T01:50:43;97655.69;;;12.48;100.00
6413;BME280;3239;48.714;9.472;2023-06-14T01:53:10;97653.09;;;12.42;100.00
6413;BME280;3239;48.714;9.472;2023-06-14T01:55:36;97658.81;;;12.37;100.00
6413;BME280;3239;48.714;9.472;2023-06-14T01:58:04;97655.31;;;12.36;100.00
6413;BME280;3239;48.714;9.472;2023-06-14T02:00:30;97659.53;;;12.30;100.00
6413;BME280;3239;48.714;9.472;2023-06-14T02:02:56;97674.19;;;12.32;100.00
6413;BME280;3239;48.714;9.472;2023-06-14T02:05:23;97667.56;;;12.20;100.00
6413;BME280;3239;48.714;9.472;2023-06-14T02:07:49;97676.56;;;12.28;100.00
6413;BME280;3239;48.714;9.472;2023-06-14T02:10:16;97665.56;;;12.21;100.00
6413;BME280;3239;48.714;9.472;2023-06-14T02:12:43;97665.72;;;12.23;100.00
6413;BME280;3239;48.714;9.472;2023-06-14T02:15:09;97668.84;;;12.19;100.00
6413;BME280;3239;48.714;9.472;2023-06-14T02:17:46;97664.09;;;12.20;100.00
6413;BME280;3239;48.714;9.472;2023-06-14T02:20:15;97663.88;;;12.10;100.00
6413;BME280;3239;48.714;9.472;2023-06-14T02:22:41;97668.09;;;12.11;100.00
6413;BME280;3239;48.714;9.472;2023-06-14T02:25:08;97670.09;;;12.03;100.00
6413;BME280;3239;48.714;9.472;2023-06-14T02:27:34;97674.13;;;12.02;100.00
6413;BME280;3239;48.714;9.472;2023-06-14T02:30:01;97670.63;;;12.02;100.00
6413;BME280;3239;48.714;9.472;2023-06-14T02:32:27;97669.91;;;12.01;100.00
6413;BME280;3239;48.714;9.472;2023-06-14T02:34:54;97676.84;;;11.95;100.00
6413;BME280;3239;48.714;9.472;2023-06-14T02:37:20;97685.25;;;11.97;100.00
6413;BME280;3239;48.714;9.472;2023-06-14T02:39:46;97676.66;;;11.93;100.00
6413;BME280;3239;48.714;9.472;2023-06-14T02:42:12;97678.09;;;11.86;100.00
6413;BME280;3239;48.714;9.472;2023-06-14T02:44:38;97668.91;;;11.76;100.00
6413;BME280;3239;48.714;9.472;2023-06-14T02:47:04;97681.31;;;11.70;100.00
6413;BME280;3239;48.714;9.472;2023-06-14T02:49:30;97687.00;;;11.72;100.00
6413;BME280;3239;48.714;9.472;2023-06-14T02:51:56;97686.47;;;11.81;100.00
6413;BME280;3239;48.714;9.472;2023-06-14T02:54:22;97690.28;;;11.70;100.00
6413;BME280;3239;48.714;9.472;2023-06-14T02:56:48;97684.78;;;11.63;100.00
6413;BME280;3239;48.714;9.472;2023-06-14T02:59:14;97688.22;;;11.63;100.00
6413;BME280;3239;48.714;9.472;2023-06-14T03:01:40;97689.66;;;11.57;100.00
6413;BME280;3239;48.714;9.472;2023-06-14T03:04:10;97690.94;;;11.56;100.00
6413;BME280;3239;48.714;9.472;2023-06-14T03:06:36;97691.66;;;11.56;100.00
6413;BME280;3239;48.714;9.472;2023-06-14T03:09:03;97683.44;;;11.56;100.00
6413;BME280;3239;48.714;9.472;2023-06-14T03:11:32;97689.97;;;11.46;100.00
6413;BME280;3239;48.714;9.472;2023-06-14T03:13:59;97692.38;;;11.49;100.00
6413;BME280;3239;48.714;9.472;2023-06-14T03:16:25;97693.78;;;11.43;100.00
6413;BME280;3239;48.714;9.472;2023-06-14T03:18:54;97705.66;;;11.38;100.00
6413;BME280;3239;48.714;9.472;2023-06-14T03:21:20;97708.56;;;11.40;100.00
6413;BME280;3239;48.714;9.472;2023-06-14T03:23:48;97703.28;;;11.42;100.00
6413;BME280;3239;48.714;9.472;2023-06-14T03:26:15;97709.72;;;11.44;100.00
6413;BME280;3239;48.714;9.472;2023-06-14T03:28:44;97701.66;;;11.46;100.00
6413;BME280;3239;48.714;9.472;2023-06-14T03:31:12;97712.84;;;11.48;100.00
6413;BME280;3239;48.714;9.472;2023-06-14T03:33:38;97712.41;;;11.37;100.00
6413;BME280;3239;48.714;9.472;2023-06-14T03:36:05;97711.47;;;11.34;100.00
6413;BME280;3239;48.714;9.472;2023-06-14T03:38:33;97714.06;;;11.40;100.00
6413;BME280;3239;48.714;9.472;2023-06-14T03:40:59;97717.41;;;11.46;100.00
6413;BME280;3239;48.714;9.472;2023-06-14T03:43:24;97716.44;;;11.36;100.00
6413;BME280;3239;48.714;9.472;2023-06-14T03:45:50;97720.09;;;11.10;100.00
6413;BME280;3239;48.714;9.472;2023-06-14T03:48:16;97726.72;;;10.94;100.00
6413;BME280;3239;48.714;9.472;2023-06-14T03:50:42;97732.13;;;11.07;100.00
6413;BME280;3239;48.714;9.472;2023-06-14T03:53:10;97735.72;;;11.23;100.00
6413;BME280;3239;48.714;9.472;2023-06-14T03:55:36;97741.06;;;11.28;100.00
6413;BME280;3239;48.714;9.472;2023-06-14T03:58:03;97746.53;;;11.28;100.00
6413;BME280;3239;48.714;9.472;2023-06-14T04:00:29;97746.53;;;11.28;100.00
6413;BME280;3239;48.714;9.472;2023-06-14T04:02:55;97739.59;;;11.27;100.00
6413;BME280;3239;48.714;9.472;2023-06-14T04:05:21;97739.19;;;11.23;100.00
6413;BME280;3239;48.714;9.472;2023-06-14T04:07:47;97744.03;;;11.10;100.00
6413;BME280;3239;48.714;9.472;2023-06-14T04:10:15;97751.44;;;11.22;100.00
6413;BME280;3239;48.714;9.472;2023-06-14T04:12:42;97742.34;;;11.27;100.00
6413;BME280;3239;48.714;9.472;2023-06-14T04:15:09;97748.88;;;11.24;100.00
6413;BME280;3239;48.714;9.472;2023-06-14T04:17:37;97759.91;;;11.32;100.00
6413;BME280;3239;48.714;9.472;2023-06-14T04:20:04;97751.91;;;11.41;100.00
6413;BME280;3239;48.714;9.472;2023-06-14T04:22:32;97755.53;;;11.36;100.00
6413;BME280;3239;48.714;9.472;2023-06-14T04:24:59;97767.78;;;11.35;100.00
6413;BME280;3239;48.714;9.472;2023-06-14T04:27:26;97772.25;;;11.46;100.00
6413;BME280;3239;48.714;9.472;2023-06-14T04:29:54;97767.00;;;11.55;100.00
6413;BME280;3239;48.714;9.472;2023-06-14T04:32:28;97766.69;;;11.59;100.00
6413;BME280;3239;48.714;9.472;2023-06-14T04:35:05;97759.72;;;11.58;100.00
6413;BME280;3239;48.714;9.472;2023-06-14T04:37:31;97761.00;;;11.57;100.00
6413;BME280;3239;48.714;9.472;2023-06-14T04:39:57;97759.78;;;11.65;100.00
6413;BME280;3239;48.714;9.472;2023-06-14T04:42:23;97769.13;;;11.70;100.00
6413;BME280;3239;48.714;9.472;2023-06-14T04:44:51;97776.28;;;11.73;100.00
6413;BME280;3239;48.714;9.472;2023-06-14T04:47:20;97778.88;;;11.78;100.00
6413;BME280;3239;48.714;9.472;2023-06-14T04:49:46;97778.16;;;11.78;100.00
6413;BME280;3239;48.714;9.472;2023-06-14T04:52:13;97782.13;;;11.69;100.00
6413;BME280;3239;48.714;9.472;2023-06-14T04:54:41;97787.34;;;11.88;100.00
6413;BME280;3239;48.714;9.472;2023-06-14T04:57:10;97788.06;;;11.88;100.00
6413;BME280;3239;48.714;9.472;2023-06-14T04:59:43;97792.84;;;11.95;100.00
6413;BME280;3239;48.714;9.472;2023-06-14T05:02:10;97788.47;;;11.92;100.00
6413;BME280;3239;48.714;9.472;2023-06-14T05:04:37;97794.44;;;11.83;100.00
6413;BME280;3239;48.714;9.472;2023-06-14T05:07:09;97794.75;;;12.08;100.00
6413;BME280;3239;48.714;9.472;2023-06-14T05:09:36;97795.56;;;12.23;100.00
6413;BME280;3239;48.714;9.472;2023-06-14T05:12:03;97795.38;;;12.29;100.00
6413;BME280;3239;48.714;9.472;2023-06-14T05:14:29;97793.97;;;12.43;100.00
6413;BME280;3239;48.714;9.472;2023-06-14T05:16:55;97787.56;;;12.48;100.00
6413;BME280;3239;48.714;9.472;2023-06-14T05:19:20;97790.16;;;12.61;100.00
6413;BME280;3239;48.714;9.472;2023-06-14T05:21:47;97779.72;;;12.74;100.00
6413;BME280;3239;48.714;9.472;2023-06-14T05:24:14;97778.81;;;12.72;100.00
6413;BME280;3239;48.714;9.472;2023-06-14T05:26:40;97790.97;;;12.91;100.00
6413;BME280;3239;48.714;9.472;2023-06-14T05:29:06;97789.72;;;13.00;100.00
6413;BME280;3239;48.714;9.472;2023-06-14T05:31:32;97784.00;;;13.13;100.00
6413;BME280;3239;48.714;9.472;2023-06-14T05:33:58;97788.97;;;13.22;100.00
6413;BME280;3239;48.714;9.472;2023-06-14T05:36:24;97773.75;;;13.28;100.00
6413;BME280;3239;48.714;9.472;2023-06-14T05:38:50;97781.81;;;13.34;100.00
6413;BME280;3239;48.714;9.472;2023-06-14T05:41:16;97774.28;;;13.49;100.00
6413;BME280;3239;48.714;9.472;2023-06-14T05:43:42;97778.81;;;13.69;100.00
6413;BME280;3239;48.714;9.472;2023-06-14T05:46:08;97778.78;;;13.77;100.00
6413;BME280;3239;48.714;9.472;2023-06-14T05:48:34;97777.78;;;14.04;100.00
6413;BME280;3239;48.714;9.472;2023-06-14T05:50:59;97776.66;;;14.15;100.00
6413;BME280;3239;48.714;9.472;2023-06-14T05:53:25;97772.94;;;14.27;100.00
6413;BME280;3239;48.714;9.472;2023-06-14T05:55:51;97770.91;;;14.35;100.00
6413;BME280;3239;48.714;9.472;2023-06-14T05:58:19;97767.84;;;14.56;100.00
6413;BME280;3239;48.714;9.472;2023-06-14T06:00:45;97774.28;;;14.83;100.00
6413;BME280;3239;48.714;9.472;2023-06-14T06:03:11;97776.75;;;15.20;100.00
6413;BME280;3239;48.714;9.472;2023-06-14T06:05:39;97775.81;;;15.01;100.00
6413;BME280;3239;48.714;9.472;2023-06-14T06:08:05;97776.53;;;15.26;100.00
6413;BME280;3239;48.714;9.472;2023-06-14T06:10:31;97768.25;;;15.67;100.00
6413;BME280;3239;48.714;9.472;2023-06-14T06:12:57;97775.00;;;15.74;100.00
6413;BME280;3239;48.714;9.472;2023-06-14T06:15:22;97773.84;;;16.11;100.00
6413;BME280;3239;48.714;9.472;2023-06-14T06:17:48;97779.03;;;16.67;100.00
6413;BME280;3239;48.714;9.472;2023-06-14T06:20:14;97779.03;;;16.67;100.00
6413;BME280;3239;48.714;9.472;2023-06-14T06:22:40;97781.28;;;16.78;100.00
6413;BME280;3239;48.714;9.472;2023-06-14T06:25:06;97781.31;;;16.88;100.00
6413;BME280;3239;48.714;9.472;2023-06-14T06:27:33;97775.97;;;16.63;100.00
6413;BME280;3239;48.714;9.472;2023-06-14T06:29:58;97789.06;;;16.99;100.00
6413;BME280;3239;48.714;9.472;2023-06-14T06:32:24;97790.19;;;17.22;100.00
6413;BME280;3239;48.714;9.472;2023-06-14T06:34:50;97787.00;;;18.00;100.00
6413;BME280;3239;48.714;9.472;2023-06-14T06:37:17;97769.19;;;18.12;100.00
6413;BME280;3239;48.714;9.472;2023-06-14T06:39:43;97779.50;;;18.59;100.00
6413;BME280;3239;48.714;9.472;2023-06-14T06:42:09;97773.47;;;19.22;100.00
6413;BME280;3239;48.714;9.472;2023-06-14T06:44:36;97781.16;;;19.33;100.00
6413;BME280;3239;48.714;9.472;2023-06-14T06:47:02;97773.72;;;20.19;100.00
6413;BME280;3239;48.714;9.472;2023-06-14T06:49:28;97779.72;;;19.74;100.00
6413;BME280;3239;48.714;9.472;2023-06-14T06:52:20;97787.22;;;19.50;100.00
6413;BME280;3239;48.714;9.472;2023-06-14T06:54:46;97798.50;;;20.59;100.00
6413;BME280;3239;48.714;9.472;2023-06-14T06:57:12;97783.81;;;20.91;100.00
6413;BME280;3239;48.714;9.472;2023-06-14T06:59:38;97797.78;;;21.03;100.00
6413;BME280;3239;48.714;9.472;2023-06-14T07:02:04;97791.41;;;21.94;100.00
6413;BME280;3239;48.714;9.472;2023-06-14T07:04:30;97796.19;;;21.69;100.00
6413;BME280;3239;48.714;9.472;2023-06-14T07:06:56;97791.28;;;20.66;100.00
6413;BME280;3239;48.714;9.472;2023-06-14T07:09:22;97798.53;;;20.27;100.00
6413;BME280;3239;48.714;9.472;2023-06-14T07:11:50;97795.63;;;20.69;100.00
6413;BME280;3239;48.714;9.472;2023-06-14T07:14:16;97793.38;;;20.44;100.00
6413;BME280;3239;48.714;9.472;2023-06-14T07:16:42;97803.00;;;21.77;100.00
6413;BME280;3239;48.714;9.472;2023-06-14T07:19:08;97799.28;;;21.98;96.42
6413;BME280;3239;48.714;9.472;2023-06-14T07:21:35;97795.88;;;22.86;86.35
6413;BME280;3239;48.714;9.472;2023-06-14T07:24:05;97804.34;;;22.88;75.42
6413;BME280;3239;48.714;9.472;2023-06-14T07:26:32;97812.19;;;23.16;75.15
6413;BME280;3239;48.714;9.472;2023-06-14T07:28:58;97806.13;;;22.95;72.38
6413;BME280;3239;48.714;9.472;2023-06-14T07:31:23;97806.06;;;22.68;73.04
6413;BME280;3239;48.714;9.472;2023-06-14T07:33:49;97814.72;;;22.99;75.79
6413;BME280;3239;48.714;9.472;2023-06-14T07:36:15;97814.13;;;23.14;71.07
6413;BME280;3239;48.714;9.472;2023-06-14T07:38:41;97818.63;;;23.19;64.00
6413;BME280;3239;48.714;9.472;2023-06-14T07:41:07;97812.53;;;22.59;69.33
6413;BME280;3239;48.714;9.472;2023-06-14T07:43:33;97820.91;;;22.59;68.07
6413;BME280;3239;48.714;9.472;2023-06-14T07:45:59;97817.50;;;23.37;63.07
6413;BME280;3239;48.714;9.472;2023-06-14T07:48:25;97817.19;;;23.85;61.09
6413;BME280;3239;48.714;9.472;2023-06-14T07:50:51;97815.16;;;24.28;54.91
6413;BME280;3239;48.714;9.472;2023-06-14T07:53:16;97825.25;;;24.49;51.07
6413;BME280;3239;48.714;9.472;2023-06-14T07:55:42;97820.63;;;23.05;53.54
6413;BME280;3239;48.714;9.472;2023-06-14T07:58:08;97814.41;;;23.45;57.90
6413;BME280;3239;48.714;9.472;2023-06-14T08:00:34;97817.59;;;23.66;56.30
6413;BME280;3239;48.714;9.472;2023-06-14T08:03:00;97818.88;;;23.63;57.57
6413;BME280;3239;48.714;9.472;2023-06-14T08:05:27;97812.50;;;24.46;51.71
6413;BME280;3239;48.714;9.472;2023-06-14T08:07:53;97811.50;;;23.43;55.86
6413;BME280;3239;48.714;9.472;2023-06-14T08:10:21;97813.88;;;23.48;58.72
6413;BME280;3239;48.714;9.472;2023-06-14T08:12:47;97811.81;;;23.76;54.13
6413;BME280;3239;48.714;9.472;2023-06-14T08:15:16;97815.22;;;23.20;58.28
6413;BME280;3239;48.714;9.472;2023-06-14T08:17:45;97807.88;;;23.40;58.46
6413;BME280;3239;48.714;9.472;2023-06-14T08:20:12;97813.88;;;23.21;58.83
6413;BME280;3239;48.714;9.472;2023-06-14T08:22:39;97812.34;;;23.99;56.68
6413;BME280;3239;48.714;9.472;2023-06-14T08:25:08;97812.50;;;24.59;55.20
6413;BME280;3239;48.714;9.472;2023-06-14T08:27:34;97816.94;;;24.64;50.88
6413;BME280;3239;48.714;9.472;2023-06-14T08:30:00;97813.09;;;24.87;49.69
6413;BME280;3239;48.714;9.472;2023-06-14T08:32:26;97817.50;;;25.36;47.45
6413;BME280;3239;48.714;9.472;2023-06-14T08:34:52;97814.94;;;25.42;46.00
6413;BME280;3239;48.714;9.472;2023-06-14T08:37:17;97819.81;;;25.57;44.63
6413;BME280;3239;48.714;9.472;2023-06-14T08:39:43;97817.44;;;24.32;44.56
6413;BME280;3239;48.714;9.472;2023-06-14T08:42:10;97821.72;;;25.53;45.34
6413;BME280;3239;48.714;9.472;2023-06-14T08:44:36;97819.78;;;24.95;46.65
6413;BME280;3239;48.714;9.472;2023-06-14T08:47:02;97814.72;;;25.23;46.18
6413;BME280;3239;48.714;9.472;2023-06-14T08:49:30;97816.28;;;25.41;44.45
6413;BME280;3239;48.714;9.472;2023-06-14T08:52:00;97825.03;;;25.03;46.31
6413;BME280;3239;48.714;9.472;2023-06-14T08:54:29;97827.41;;;25.39;43.91
6413;BME280;3239;48.714;9.472;2023-06-14T08:56:59;97826.38;;;25.79;41.07
6413;BME280;3239;48.714;9.472;2023-06-14T08:59:28;97822.84;;;26.62;40.50
6413;BME280;3239;48.714;9.472;2023-06-14T09:01:56;97812.03;;;26.04;41.44
6413;BME280;3239;48.714;9.472;2023-06-14T09:04:23;97830.91;;;27.07;40.71
6413;BME280;3239;48.714;9.472;2023-06-14T09:06:55;97825.16;;;27.40;39.35
6413;BME280;3239;48.714;9.472;2023-06-14T09:09:22;97824.31;;;27.18;37.66
6413;BME280;3239;48.714;9.472;2023-06-14T09:11:54;97820.28;;;26.68;36.83
6413;BME280;3239;48.714;9.472;2023-06-14T09:14:24;97825.47;;;26.76;37.87
6413;BME280;3239;48.714;9.472;2023-06-14T09:16:57;97818.34;;;26.55;40.08
6413;BME280;3239;48.714;9.472;2023-06-14T09:19:25;97813.53;;;26.58;40.21
6413;BME280;3239;48.714;9.472;2023-06-14T09:21:52;97816.06;;;26.34;39.68
6413;BME280;3239;48.714;9.472;2023-06-14T09:24:19;97815.09;;;27.74;37.53
6413;BME280;3239;48.714;9.472;2023-06-14T09:26:47;97816.69;;;27.20;37.96
6413;BME280;3239;48.714;9.472;2023-06-14T09:29:13;97812.34;;;27.17;35.98
6413;BME280;3239;48.714;9.472;2023-06-14T09:31:42;97824.47;;;27.22;35.02
6413;BME280;3239;48.714;9.472;2023-06-14T09:34:09;97826.84;;;26.75;36.53
6413;BME280;3239;48.714;9.472;2023-06-14T09:36:35;97824.72;;;27.47;35.68
6413;BME280;3239;48.714;9.472;2023-06-14T09:39:03;97826.28;;;27.33;35.48
6413;BME280;3239;48.714;9.472;2023-06-14T09:41:34;97822.97;;;26.14;35.72
6413;BME280;3239;48.714;9.472;2023-06-14T09:44:01;97819.38;;;24.72;40.15
6413;BME280;3239;48.714;9.472;2023-06-14T09:46:28;97821.81;;;24.50;42.73
6413;BME280;3239;48.714;9.472;2023-06-14T09:48:56;97831.78;;;24.53;45.76
6413;BME280;3239;48.714;9.472;2023-06-14T09:51:25;97830.69;;;24.45;43.55
6413;BME280;3239;48.714;9.472;2023-06-14T09:53:53;97829.88;;;24.71;47.44
6413;BME280;3239;48.714;9.472;2023-06-14T09:56:26;97830.31;;;25.10;40.15
6413;BME280;3239;48.714;9.472;2023-06-14T09:58:56;97824.97;;;25.32;38.32
6413;BME280;3239;48.714;9.472;2023-06-14T10:01:29;97831.06;;;24.82;38.30
6413;BME280;3239;48.714;9.472;2023-06-14T10:04:04;97821.22;;;24.96;40.25
6413;BME280;3239;48.714;9.472;2023-06-14T10:06:31;97822.53;;;25.88;38.90
6413;BME280;3239;48.714;9.472;2023-06-14T10:08:59;97825.28;;;25.86;41.28
6413;BME280;3239;48.714;9.472;2023-06-14T10:11:27;97825.56;;;25.77;41.65
6413;BME280;3239;48.714;9.472;2023-06-14T10:13:57;97821.69;;;25.68;42.67
6413;BME280;3239;48.714;9.472;2023-06-14T10:16:31;97821.38;;;26.44;39.76
6413;BME280;3239;48.714;9.472;2023-06-14T10:19:07;97816.06;;;27.80;38.68
6413;BME280;3239;48.714;9.472;2023-06-14T10:24:42;97815.47;;;26.71;37.01
6413;BME280;3239;48.714;9.472;2023-06-14T10:27:08;97811.97;;;26.20;38.93
6413;BME280;3239;48.714;9.472;2023-06-14T10:32:28;97824.38;;;25.97;40.00
6413;BME280;3239;48.714;9.472;2023-06-14T10:35:01;97812.56;;;26.69;38.05
6413;BME280;3239;48.714;9.472;2023-06-14T10:37:29;97817.56;;;27.25;35.61
6413;BME280;3239;48.714;9.472;2023-06-14T10:39:55;97816.97;;;27.67;36.01
6413;BME280;3239;48.714;9.472;2023-06-14T10:42:21;97809.81;;;27.25;35.68
6413;BME280;3239;48.714;9.472;2023-06-14T10:44:57;97813.97;;;28.22;34.83
6413;BME280;3239;48.714;9.472;2023-06-14T10:47:35;97811.16;;;27.22;35.28
6413;BME280;3239;48.714;9.472;2023-06-14T10:50:06;97811.56;;;27.34;35.45
6413;BME280;3239;48.714;9.472;2023-06-14T10:52:41;97808.53;;;26.21;37.12
6413;BME280;3239;48.714;9.472;2023-06-14T10:55:15;97810.81;;;27.14;34.86
6413;BME280;3239;48.714;9.472;2023-06-14T10:57:54;97805.13;;;27.71;34.91
6413;BME280;3239;48.714;9.472;2023-06-14T11:00:28;97801.13;;;27.56;34.11
6413;BME280;3239;48.714;9.472;2023-06-14T11:03:51;97807.53;;;27.20;36.77
6413;BME280;3239;48.714;9.472;2023-06-14T11:06:22;97810.41;;;27.04;37.97
6413;BME280;3239;48.714;9.472;2023-06-14T11:11:42;97802.44;;;26.44;39.00
6413;BME280;3239;48.714;9.472;2023-06-14T11:14:08;97798.00;;;25.89;39.67
6413;BME280;3239;48.714;9.472;2023-06-14T11:16:35;97800.59;;;26.51;40.77
6413;BME280;3239;48.714;9.472;2023-06-14T11:19:02;97798.47;;;27.04;37.39
6413;BME280;3239;48.714;9.472;2023-06-14T11:21:28;97800.25;;;27.32;37.77
6413;BME280;3239;48.714;9.472;2023-06-14T11:23:57;97801.97;;;27.22;37.07
6413;BME280;3239;48.714;9.472;2023-06-14T11:26:27;97800.47;;;25.81;37.31
6413;BME280;3239;48.714;9.472;2023-06-14T11:28:59;97796.66;;;25.41;37.26
6413;BME280;3239;48.714;9.472;2023-06-14T11:31:26;97795.22;;;25.40;36.51
6413;BME280;3239;48.714;9.472;2023-06-14T11:33:59;97795.63;;;25.19;36.82
6413;BME280;3239;48.714;9.472;2023-06-14T11:36:30;97797.19;;;25.53;36.74
6413;BME280;3239;48.714;9.472;2023-06-14T11:39:05;97802.00;;;26.17;38.75
6413;BME280;3239;48.714;9.472;2023-06-14T11:41:42;97794.25;;;26.33;35.83
6413;BME280;3239;48.714;9.472;2023-06-14T11:44:08;97798.88;;;26.09;37.24
6413;BME280;3239;48.714;9.472;2023-06-14T11:46:34;97792.13;;;25.98;36.17
6413;BME280;3239;48.714;9.472;2023-06-14T11:49:02;97797.91;;;25.23;38.31
6413;BME280;3239;48.714;9.472;2023-06-14T11:51:33;97784.53;;;24.90;40.11
6413;BME280;3239;48.714;9.472;2023-06-14T11:54:04;97790.69;;;25.18;42.86
6413;BME280;3239;48.714;9.472;2023-06-14T11:56:31;97789.22;;;25.17;41.75
6413;BME280;3239;48.714;9.472;2023-06-14T11:58:57;97787.94;;;25.66;40.81
6413;BME280;3239;48.714;9.472;2023-06-14T12:01:23;97789.69;;;25.42;41.34
6413;BME280;3239;48.714;9.472;2023-06-14T12:03:50;97788.84;;;25.71;43.12
6413;BME280;3239;48.714;9.472;2023-06-14T12:06:30;97786.53;;;25.83;42.19
6413;BME280;3239;48.714;9.472;2023-06-14T12:09:04;97789.69;;;25.91;40.48
6413;BME280;3239;48.714;9.472;2023-06-14T12:11:35;97790.84;;;25.86;39.49
6413;BME280;3239;48.714;9.472;2023-06-14T12:14:04;97790.66;;;25.64;39.27
6413;BME280;3239;48.714;9.472;2023-06-14T12:16:37;97785.34;;;26.21;39.46
6413;BME280;3239;48.714;9.472;2023-06-14T12:19:15;97786.88;;;26.76;38.91
6413;BME280;3239;48.714;9.472;2023-06-14T12:21:42;97786.56;;;26.68;38.23
6413;BME280;3239;48.714;9.472;2023-06-14T12:24:09;97787.41;;;26.90;38.12
6413;BME280;3239;48.714;9.472;2023-06-14T12:26:41;97782.38;;;27.24;38.72
6413;BME280;3239;48.714;9.472;2023-06-14T12:29:07;97793.34;;;26.81;35.08
6413;BME280;3239;48.714;9.472;2023-06-14T12:31:33;97784.34;;;25.97;35.73
6413;BME280;3239;48.714;9.472;2023-06-14T12:33:59;97787.91;;;26.15;37.25
6413;BME280;3239;48.714;9.472;2023-06-14T12:36:26;97779.72;;;26.21;37.33
6413;BME280;3239;48.714;9.472;2023-06-14T12:38:52;97791.50;;;26.87;36.82
6413;BME280;3239;48.714;9.472;2023-06-14T12:41:21;97775.06;;;26.45;36.44
6413;BME280;3239;48.714;9.472;2023-06-14T12:43:48;97778.59;;;26.80;37.84
6413;BME280;3239;48.714;9.472;2023-06-14T12:46:14;97777.41;;;26.68;37.63
6413;BME280;3239;48.714;9.472;2023-06-14T12:48:39;97776.06;;;27.25;37.05
6413;BME280;3239;48.714;9.472;2023-06-14T12:51:05;97779.03;;;27.29;37.56
6413;BME280;3239;48.714;9.472;2023-06-14T12:53:31;97778.13;;;27.42;36.59
6413;BME280;3239;48.714;9.472;2023-06-14T12:55:57;97778.81;;;27.43;36.00
6413;BME280;3239;48.714;9.472;2023-06-14T12:58:22;97784.38;;;26.84;38.74
6413;BME280;3239;48.714;9.472;2023-06-14T13:00:49;97780.38;;;27.09;37.49
6413;BME280;3239;48.714;9.472;2023-06-14T13:03:15;97793.97;;;26.97;38.17
6413;BME280;3239;48.714;9.472;2023-06-14T13:05:41;97783.44;;;27.34;38.05
6413;BME280;3239;48.714;9.472;2023-06-14T13:08:08;97794.66;;;27.73;38.81
6413;BME280;3239;48.714;9.472;2023-06-14T13:10:34;97788.53;;;27.20;34.14
6413;BME280;3239;48.714;9.472;2023-06-14T13:13:00;97788.22;;;27.30;36.17
6413;BME280;3239;48.714;9.472;2023-06-14T13:15:26;97781.31;;;27.15;35.79
6413;BME280;3239;48.714;9.472;2023-06-14T13:17:53;97786.56;;;27.05;36.29
6413;BME280;3239;48.714;9.472;2023-06-14T13:20:18;97781.56;;;27.41;35.50
6413;BME280;3239;48.714;9.472;2023-06-14T13:22:44;97780.53;;;27.71;37.09
6413;BME280;3239;48.714;9.472;2023-06-14T13:25:10;97780.13;;;27.79;34.94
6413;BME280;3239;48.714;9.472;2023-06-14T13:27:36;97776.00;;;27.43;35.63
6413;BME280;3239;48.714;9.472;2023-06-14T13:30:03;97770.16;;;27.56;35.47